Time;durP1;ratioP1;P1;durP2;ratioP2;P2;SDS_P1;SDS_P2;PMS_P1;PMS_P2;Temp;Humidity;BMP_temperature;BMP_pressure;BME280_temperature;BME280_humidity;BME280_pressure;Samples;Min_cycle;Max_cycle;Signal;HPM_P1;HPM_P2
2021/04/18 00:01:20;;;;;;;;;;;12.60;35.30;;;;;;5033187;28;74574;-62
2021/04/18 00:03:45;;;;;;;;;;;12.60;35.40;;;;;;5032603;28;75131;-62
2021/04/18 00:06:11;;;;;;;;;;;12.50;35.70;;;;;;5032374;28;75539;-62
2021/04/18 00:08:36;;;;;;;;;;;12.50;35.70;;;;;;5030661;28;77614;-62
2021/04/18 00:11:02;;;;;;;;;;;12.50;35.90;;;;;;5032660;28;74477;-64
2021/04/18 00:13:28;;;;;;;;;;;12.40;36.00;;;;;;5032586;28;75262;-62
2021/04/18 00:15:53;;;;;;;;;;;12.50;36.00;;;;;;5032323;28;75372;-63
2021/04/18 00:18:19;;;;;;;;;;;12.40;36.20;;;;;;5031194;28;76937;-63
2021/04/18 00:20:44;;;;;;;;;;;12.40;36.20;;;;;;5032067;28;76053;-63
2021/04/18 00:23:10;;;;;;;;;;;12.40;36.30;;;;;;5032100;28;76292;-63
2021/04/18 00:25:35;;;;;;;;;;;12.40;36.20;;;;;;5034417;28;75354;-62
2021/04/18 00:28:01;;;;;;;;;;;12.40;36.20;;;;;;5039171;28;75133;-63
2021/04/18 00:30:27;;;;;;;;;;;12.30;36.50;;;;;;5038998;28;75722;-63
2021/04/18 00:32:53;;;;;;;;;;;12.20;36.60;;;;;;5039459;28;74489;-63
2021/04/18 00:35:20;;;;;;;;;;;12.20;36.70;;;;;;5039014;28;75288;-65
2021/04/18 00:37:46;;;;;;;;;;;12.10;36.90;;;;;;5038683;28;74789;-62
2021/04/18 00:40:16;;;;;;;;;;;12.10;37.00;;;;;;5038638;28;75174;-63
2021/04/18 00:42:42;;;;;;;;;;;12.00;37.00;;;;;;5038982;28;76496;-63
2021/04/18 00:45:09;;;;;;;;;;;12.00;37.10;;;;;;5038915;28;76400;-63
2021/04/18 00:47:35;;;;;;;;;;;11.90;37.30;;;;;;5038788;28;75179;-63
2021/04/18 00:50:01;;;;;;;;;;;11.90;37.20;;;;;;5037378;28;77798;-63
2021/04/18 00:52:26;;;;;;;;;;;11.90;37.20;;;;;;5037216;28;75147;-63
2021/04/18 00:54:53;;;;;;;;;;;11.80;37.30;;;;;;5037211;28;76099;-62
2021/04/18 00:57:18;;;;;;;;;;;11.70;37.50;;;;;;5037176;28;78351;-62
2021/04/18 00:59:44;;;;;;;;;;;11.70;37.50;;;;;;5039080;28;74367;-63
2021/04/18 01:02:10;;;;;;;;;;;11.50;37.50;;;;;;5036526;28;75936;-63
2021/04/18 01:04:35;;;;;;;;;;;11.50;37.50;;;;;;5036659;28;77164;-64
2021/04/18 01:07:01;;;;;;;;;;;11.40;37.70;;;;;;5036616;28;77444;-63
2021/04/18 01:09:29;;;;;;;;;;;11.40;37.70;;;;;;5038483;28;75120;-63
2021/04/18 01:11:55;;;;;;;;;;;11.30;37.80;;;;;;5036560;28;77756;-63
2021/04/18 01:14:22;;;;;;;;;;;11.30;37.80;;;;;;5037346;28;94238;-63
2021/04/18 01:16:48;;;;;;;;;;;11.20;37.70;;;;;;5038259;28;75261;-63
2021/04/18 01:19:13;;;;;;;;;;;11.10;37.90;;;;;;5036622;28;77316;-63
2021/04/18 01:21:39;;;;;;;;;;;11.00;38.10;;;;;;5036971;28;77036;-63
2021/04/18 01:24:05;;;;;;;;;;;11.00;38.10;;;;;;5038203;28;75259;-62
2021/04/18 01:26:31;;;;;;;;;;;11.00;38.20;;;;;;5038595;28;75750;-62
2021/04/18 01:28:57;;;;;;;;;;;11.00;38.40;;;;;;5036430;28;77357;-64
2021/04/18 01:31:23;;;;;;;;;;;10.90;38.30;;;;;;5038468;28;75719;-64
2021/04/18 01:33:48;;;;;;;;;;;10.90;38.30;;;;;;5036349;28;76580;-62
2021/04/18 01:36:14;;;;;;;;;;;10.90;38.40;;;;;;5037639;28;74532;-63
2021/04/18 01:38:40;;;;;;;;;;;10.80;38.60;;;;;;5032145;28;76486;-62
2021/04/18 01:41:07;;;;;;;;;;;10.70;38.80;;;;;;5035148;28;74599;-62
2021/04/18 01:43:33;;;;;;;;;;;10.70;38.70;;;;;;5034818;28;75005;-63
2021/04/18 01:45:59;;;;;;;;;;;10.70;38.70;;;;;;5033630;28;75408;-63
2021/04/18 01:48:24;;;;;;;;;;;10.70;38.60;;;;;;5034928;28;74390;-63
2021/04/18 01:50:51;;;;;;;;;;;10.60;38.80;;;;;;5036048;28;75365;-62
2021/04/18 01:53:17;;;;;;;;;;;10.60;38.70;;;;;;5033979;28;78546;-62
2021/04/18 01:55:42;;;;;;;;;;;10.60;38.80;;;;;;5033220;28;78346;-62
2021/04/18 01:58:08;;;;;;;;;;;10.50;38.70;;;;;;5567489;22;77244;-63
2021/04/18 02:00:35;;;;;;;;;;;10.50;39.00;;;;;;5014332;28;75404;-66
2021/04/18 02:03:01;;;;;;;;;;;10.40;39.10;;;;;;5029804;28;75386;-68
2021/04/18 02:05:29;;;;;;;;;;;10.40;39.20;;;;;;5012927;28;76512;-64
2021/04/18 02:07:54;;;;;;;;;;;10.40;39.20;;;;;;5014613;28;75286;-67
2021/04/18 02:10:20;;;;;;;;;;;10.30;39.20;;;;;;5012789;28;77145;-67
2021/04/18 02:12:46;;;;;;;;;;;10.30;39.30;;;;;;5012497;28;76922;-66
2021/04/18 02:15:12;;;;;;;;;;;10.30;39.20;;;;;;5012231;28;77112;-67
2021/04/18 02:17:38;;;;;;;;;;;10.30;39.70;;;;;;5014420;28;75235;-65
2021/04/18 02:20:07;;;;;;;;;;;10.20;39.00;;;;;;5012761;28;76189;-62
2021/04/18 02:22:33;;;;;;;;;;;10.20;39.40;;;;;;5012868;28;76536;-66
2021/04/18 02:24:59;;;;;;;;;;;10.10;39.40;;;;;;5012610;28;74576;-63
2021/04/18 02:27:26;;;;;;;;;;;10.10;39.40;;;;;;5012749;28;74622;-66
2021/04/18 02:29:52;;;;;;;;;;;10.10;39.30;;;;;;5012665;28;77232;-65
2021/04/18 02:32:18;;;;;;;;;;;10.00;39.30;;;;;;5014116;28;75769;-66
2021/04/18 02:34:44;;;;;;;;;;;10.00;39.30;;;;;;5011794;28;77420;-66
2021/04/18 02:37:09;;;;;;;;;;;10.00;39.20;;;;;;5014028;28;75520;-63
2021/04/18 02:39:35;;;;;;;;;;;10.00;39.30;;;;;;5013920;28;75282;-65
2021/04/18 02:42:00;;;;;;;;;;;9.90;39.60;;;;;;5012299;28;75307;-67
2021/04/18 02:44:26;;;;;;;;;;;9.90;39.50;;;;;;5012390;28;75834;-69
2021/04/18 02:46:52;;;;;;;;;;;9.90;39.50;;;;;;5012375;28;76562;-70
2021/04/18 02:49:17;;;;;;;;;;;9.80;39.50;;;;;;5011917;28;75255;-67
2021/04/18 02:51:43;;;;;;;;;;;9.80;39.60;;;;;;5013988;28;75108;-65
2021/04/18 02:54:09;;;;;;;;;;;9.70;39.50;;;;;;5012582;28;75389;-66
2021/04/18 02:56:34;;;;;;;;;;;9.60;39.70;;;;;;5013982;28;75740;-61
2021/04/18 02:59:00;;;;;;;;;;;9.60;39.80;;;;;;5028546;28;75521;-62
2021/04/18 03:01:25;;;;;;;;;;;9.50;40.00;;;;;;5014249;28;74795;-61
2021/04/18 03:03:51;;;;;;;;;;;9.60;39.80;;;;;;5012174;28;75399;-62
2021/04/18 03:06:17;;;;;;;;;;;9.50;39.90;;;;;;5012054;28;76147;-64
2021/04/18 03:08:42;;;;;;;;;;;9.50;40.00;;;;;;5013473;28;74966;-68
2021/04/18 03:11:08;;;;;;;;;;;9.40;40.20;;;;;;5012078;28;74823;-70
2021/04/18 03:13:34;;;;;;;;;;;9.40;40.30;;;;;;5028376;28;77554;-65
2021/04/18 03:16:00;;;;;;;;;;;9.40;40.30;;;;;;5013712;28;74519;-67
2021/04/18 03:18:25;;;;;;;;;;;9.40;40.10;;;;;;5013840;28;74334;-66
2021/04/18 03:20:51;;;;;;;;;;;9.40;40.20;;;;;;5013514;28;75244;-66
2021/04/18 03:23:17;;;;;;;;;;;9.40;40.30;;;;;;5028492;28;75728;-70
2021/04/18 03:25:42;;;;;;;;;;;9.30;40.10;;;;;;5013892;28;74384;-70
2021/04/18 03:28:08;;;;;;;;;;;9.40;40.50;;;;;;5011787;28;78005;-68
2021/04/18 03:30:35;;;;;;;;;;;9.30;40.20;;;;;;5013536;28;74432;-69
2021/04/18 03:33:01;;;;;;;;;;;9.30;40.10;;;;;;5013491;28;74448;-66
2021/04/18 03:35:26;;;;;;;;;;;9.30;40.20;;;;;;5011750;28;75386;-67
2021/04/18 03:37:52;;;;;;;;;;;9.30;40.20;;;;;;5013185;28;75100;-70
2021/04/18 03:40:18;;;;;;;;;;;9.20;40.30;;;;;;5028019;28;77078;-70
2021/04/18 03:42:43;;;;;;;;;;;9.10;40.30;;;;;;5013065;28;75029;-69
2021/04/18 03:45:09;;;;;;;;;;;9.20;40.50;;;;;;5011453;28;77010;-67
2021/04/18 03:47:35;;;;;;;;;;;9.10;40.50;;;;;;5011441;28;76540;-68
2021/04/18 03:50:01;;;;;;;;;;;9.20;40.40;;;;;;5013103;28;75099;-67
2021/04/18 03:52:27;;;;;;;;;;;9.10;40.30;;;;;;5013290;28;74380;-69
2021/04/18 03:54:52;;;;;;;;;;;9.20;40.40;;;;;;5011266;28;76436;-67
2021/04/18 03:57:18;;;;;;;;;;;9.10;40.50;;;;;;5012936;28;75249;-69
2021/04/18 03:59:44;;;;;;;;;;;9.10;40.60;;;;;;5010517;28;77395;-66
2021/04/18 04:02:09;;;;;;;;;;;9.00;40.60;;;;;;5012673;28;74372;-71
2021/04/18 04:04:36;;;;;;;;;;;9.00;40.60;;;;;;5012879;28;75162;-68
2021/04/18 04:07:01;;;;;;;;;;;9.00;40.80;;;;;;5013132;28;74396;-68
2021/04/18 04:09:29;;;;;;;;;;;9.00;40.80;;;;;;5011197;28;77941;-65
2021/04/18 04:11:54;;;;;;;;;;;9.00;40.90;;;;;;5011168;28;77586;-67
2021/04/18 04:14:20;;;;;;;;;;;9.00;41.00;;;;;;5012746;28;74416;-68
2021/04/18 04:16:46;;;;;;;;;;;9.00;40.90;;;;;;5012729;28;75214;-63
2021/04/18 04:19:11;;;;;;;;;;;8.90;41.10;;;;;;5010942;28;75719;-62
2021/04/18 04:21:37;;;;;;;;;;;8.90;41.10;;;;;;5012667;28;75615;-62
2021/04/18 04:24:03;;;;;;;;;;;8.90;41.10;;;;;;5012481;28;75675;-62
2021/04/18 04:26:28;;;;;;;;;;;8.90;41.20;;;;;;5010873;28;74644;-66
2021/04/18 04:28:54;;;;;;;;;;;8.90;41.40;;;;;;5012240;28;75335;-67
2021/04/18 04:31:19;;;;;;;;;;;8.90;41.50;;;;;;5010888;28;77905;-69
2021/04/18 04:33:45;;;;;;;;;;;8.80;41.70;;;;;;5010881;28;76339;-67
2021/04/18 04:36:11;;;;;;;;;;;8.80;41.60;;;;;;5012651;28;74444;-67
2021/04/18 04:38:36;;;;;;;;;;;8.70;41.70;;;;;;5012402;28;75056;-63
2021/04/18 04:41:02;;;;;;;;;;;8.70;41.90;;;;;;5010754;28;76874;-68
2021/04/18 04:43:28;;;;;;;;;;;8.60;41.90;;;;;;5012342;28;75253;-67
2021/04/18 04:45:53;;;;;;;;;;;8.60;42.10;;;;;;5011031;28;76201;-69
2021/04/18 04:48:19;;;;;;;;;;;8.60;42.30;;;;;;5012208;28;74488;-67
2021/04/18 04:50:45;;;;;;;;;;;8.50;42.20;;;;;;5027264;28;77634;-63
2021/04/18 04:53:10;;;;;;;;;;;8.50;42.50;;;;;;5011914;28;75749;-66
2021/04/18 04:55:36;;;;;;;;;;;8.50;42.60;;;;;;5010941;28;77788;-66
2021/04/18 04:58:01;;;;;;;;;;;8.50;42.60;;;;;;5010493;28;75719;-62
2021/04/18 05:00:27;;;;;;;;;;;8.40;42.60;;;;;;5010008;28;75917;-62
2021/04/18 05:02:53;;;;;;;;;;;8.50;42.60;;;;;;5010144;28;77548;-62
2021/04/18 05:05:18;;;;;;;;;;;8.50;42.80;;;;;;5011995;28;75084;-66
2021/04/18 05:07:44;;;;;;;;;;;8.50;42.60;;;;;;5010462;28;75249;-68
2021/04/18 05:10:10;;;;;;;;;;;8.50;42.70;;;;;;5011960;28;75096;-69
2021/04/18 05:12:36;;;;;;;;;;;8.60;42.60;;;;;;5012656;28;75693;-62
2021/04/18 05:15:02;;;;;;;;;;;8.60;42.60;;;;;;5014369;28;76347;-64
2021/04/18 05:17:27;;;;;;;;;;;8.50;42.70;;;;;;5015209;28;75163;-61
2021/04/18 05:19:53;;;;;;;;;;;8.50;43.00;;;;;;5015342;28;74997;-63
2021/04/18 05:22:18;;;;;;;;;;;8.50;42.90;;;;;;5015318;28;75195;-62
2021/04/18 05:24:44;;;;;;;;;;;8.50;43.10;;;;;;5015333;28;75143;-63
2021/04/18 05:27:10;;;;;;;;;;;8.50;43.00;;;;;;5013709;28;78175;-64
2021/04/18 05:29:35;;;;;;;;;;;8.40;43.20;;;;;;5013462;28;75462;-62
2021/04/18 05:32:01;;;;;;;;;;;8.40;43.40;;;;;;5015347;28;74472;-61
2021/04/18 05:34:27;;;;;;;;;;;8.40;43.30;;;;;;5014103;28;76134;-62
2021/04/18 05:36:52;;;;;;;;;;;8.40;43.50;;;;;;5015182;28;74999;-63
2021/04/18 05:39:18;;;;;;;;;;;8.40;43.60;;;;;;5014977;28;75530;-61
2021/04/18 05:41:43;;;;;;;;;;;8.40;43.40;;;;;;5014850;28;75436;-63
2021/04/18 05:44:14;;;;;;;;;;;8.40;43.50;;;;;;5013344;28;76925;-62
2021/04/18 05:46:43;;;;;;;;;;;8.40;43.60;;;;;;5013627;28;76640;-64
2021/04/18 05:49:08;;;;;;;;;;;8.40;43.60;;;;;;5013261;28;77515;-65
2021/04/18 05:51:34;;;;;;;;;;;8.40;43.80;;;;;;5013306;28;77577;-66
2021/04/18 05:54:00;;;;;;;;;;;8.40;43.80;;;;;;5014820;28;75033;-64
2021/04/18 05:56:26;;;;;;;;;;;8.40;43.70;;;;;;5013029;28;74529;-62
2021/04/18 05:58:51;;;;;;;;;;;8.50;43.80;;;;;;5012617;28;77568;-65
2021/04/18 06:01:22;;;;;;;;;;;8.50;43.80;;;;;;5014568;28;74897;-65
2021/04/18 06:03:48;;;;;;;;;;;8.40;43.80;;;;;;5013082;28;75479;-65
2021/04/18 06:06:13;;;;;;;;;;;8.40;44.00;;;;;;5012968;28;75652;-64
2021/04/18 06:08:39;;;;;;;;;;;8.50;43.90;;;;;;5014556;28;75206;-63
2021/04/18 06:11:05;;;;;;;;;;;8.40;43.90;;;;;;5014007;28;75088;-65
2021/04/18 06:13:31;;;;;;;;;;;8.50;43.70;;;;;;5012983;28;76475;-61
2021/04/18 06:15:56;;;;;;;;;;;8.60;44.00;;;;;;5014463;28;74357;-62
2021/04/18 06:18:22;;;;;;;;;;;8.60;43.90;;;;;;5012532;28;77084;-65
2021/04/18 06:20:47;;;;;;;;;;;8.60;43.70;;;;;;5012712;28;75343;-67
2021/04/18 06:23:13;;;;;;;;;;;8.60;43.90;;;;;;5013575;28;75064;-64
2021/04/18 06:25:39;;;;;;;;;;;8.60;43.70;;;;;;5014314;28;75030;-69
2021/04/18 06:28:04;;;;;;;;;;;8.60;43.80;;;;;;5012662;28;77523;-68
2021/04/18 06:30:30;;;;;;;;;;;8.60;44.20;;;;;;5013119;28;74684;-68
2021/04/18 06:32:56;;;;;;;;;;;8.60;44.00;;;;;;5014129;28;75163;-69
2021/04/18 06:35:21;;;;;;;;;;;8.70;44.00;;;;;;5012455;28;77138;-66
2021/04/18 06:37:47;;;;;;;;;;;8.70;44.20;;;;;;5012609;28;75789;-70
2021/04/18 06:40:13;;;;;;;;;;;8.70;44.10;;;;;;5014281;28;74968;-69
2021/04/18 06:42:39;;;;;;;;;;;8.80;44.00;;;;;;5028904;28;75432;-65
2021/04/18 06:45:06;;;;;;;;;;;8.90;43.80;;;;;;5012560;28;77213;-63
2021/04/18 06:47:34;;;;;;;;;;;8.90;43.80;;;;;;5012119;28;77394;-66
2021/04/18 06:50:00;;;;;;;;;;;9.00;43.70;;;;;;5012535;28;76595;-64
2021/04/18 06:52:25;;;;;;;;;;;9.10;43.60;;;;;;5012367;28;75863;-66
2021/04/18 06:54:51;;;;;;;;;;;9.10;43.60;;;;;;5011687;28;77115;-65
2021/04/18 06:57:17;;;;;;;;;;;9.20;43.60;;;;;;5012359;28;74478;-67
2021/04/18 06:59:42;;;;;;;;;;;9.20;43.50;;;;;;5011778;28;76532;-65
2021/04/18 07:02:21;;;;;;;;;;;9.30;43.50;;;;;;5013703;28;75097;-64
2021/04/18 07:04:55;;;;;;;;;;;9.30;43.40;;;;;;5012040;28;78274;-66
2021/04/18 07:07:28;;;;;;;;;;;9.40;43.30;;;;;;5011854;28;75838;-65
2021/04/18 07:09:54;;;;;;;;;;;9.40;43.30;;;;;;5028775;28;75534;-65
2021/04/18 07:12:30;;;;;;;;;;;9.40;43.40;;;;;;5013734;28;75387;-65
2021/04/18 07:14:56;;;;;;;;;;;9.50;43.20;;;;;;5011346;28;77544;-66
2021/04/18 07:17:22;;;;;;;;;;;9.60;43.20;;;;;;5012283;28;77341;-67
2021/04/18 07:19:51;;;;;;;;;;;9.70;43.10;;;;;;5013467;28;75192;-66
2021/04/18 07:22:28;;;;;;;;;;;9.70;43.00;;;;;;5013311;28;75469;-66
2021/04/18 07:24:55;;;;;;;;;;;9.70;43.20;;;;;;5013320;28;74512;-66
2021/04/18 07:27:21;;;;;;;;;;;9.80;42.90;;;;;;5013676;28;74554;-65
2021/04/18 07:29:54;;;;;;;;;;;9.90;42.90;;;;;;5013375;28;75031;-64
2021/04/18 07:32:23;;;;;;;;;;;9.90;43.00;;;;;;5013196;28;75315;-66
2021/04/18 07:34:50;;;;;;;;;;;10.00;42.80;;;;;;5012533;28;74512;-66
2021/04/18 07:37:17;;;;;;;;;;;10.20;42.80;;;;;;5013088;28;74458;-66
2021/04/18 07:39:53;;;;;;;;;;;10.20;42.60;;;;;;5013299;28;74778;-66
2021/04/18 07:42:34;;;;;;;;;;;10.30;42.80;;;;;;5013048;28;75032;-66
2021/04/18 07:45:03;;;;;;;;;;;10.30;42.30;;;;;;5012654;28;75166;-66
2021/04/18 07:47:28;;;;;;;;;;;10.40;42.30;;;;;;5011203;28;76689;-66
2021/04/18 07:49:55;;;;;;;;;;;10.50;42.30;;;;;;5011473;28;75744;-65
2021/04/18 07:52:22;;;;;;;;;;;10.50;42.00;;;;;;5011353;28;76729;-65
2021/04/18 07:54:48;;;;;;;;;;;10.60;42.10;;;;;;5027671;28;76418;-66
2021/04/18 07:57:16;;;;;;;;;;;10.70;42.00;;;;;;5011304;28;75830;-66
2021/04/18 07:59:42;;;;;;;;;;;10.80;41.90;;;;;;5010969;28;78209;-66
2021/04/18 08:02:08;;;;;;;;;;;10.80;41.70;;;;;;5012643;28;75112;-65
2021/04/18 08:04:33;;;;;;;;;;;10.80;41.90;;;;;;5012313;28;75648;-67
2021/04/18 08:07:02;;;;;;;;;;;10.90;41.70;;;;;;5011066;28;76406;-64
2021/04/18 08:09:28;;;;;;;;;;;10.90;41.10;;;;;;5012720;28;75338;-65
2021/04/18 08:12:05;;;;;;;;;;;11.10;41.40;;;;;;5012878;28;75049;-66
2021/04/18 08:14:31;;;;;;;;;;;11.20;41.10;;;;;;5010543;28;75508;-66
2021/04/18 08:17:03;;;;;;;;;;;11.20;41.30;;;;;;5012697;28;75116;-67
2021/04/18 08:19:29;;;;;;;;;;;11.30;41.30;;;;;;5011017;28;78022;-66
2021/04/18 08:21:55;;;;;;;;;;;11.40;41.00;;;;;;5010847;28;77847;-66
2021/04/18 08:24:20;;;;;;;;;;;11.50;41.00;;;;;;5010914;28;75997;-66
2021/04/18 08:26:55;;;;;;;;;;;11.60;40.90;;;;;;5010950;28;76666;-66
2021/04/18 08:29:20;;;;;;;;;;;11.70;40.80;;;;;;5010326;28;77560;-65
2021/04/18 08:31:49;;;;;;;;;;;11.80;40.50;;;;;;5010779;28;75327;-65
2021/04/18 08:34:28;;;;;;;;;;;11.90;40.40;;;;;;5010868;28;75939;-67
2021/04/18 08:36:55;;;;;;;;;;;12.00;40.40;;;;;;5010934;28;75437;-65
2021/04/18 08:39:41;;;;;;;;;;;12.10;39.80;;;;;;5010671;28;75976;-65
2021/04/18 08:42:08;;;;;;;;;;;12.10;39.70;;;;;;5010251;28;77150;-65
2021/04/18 08:44:37;;;;;;;;;;;12.20;40.00;;;;;;5027346;28;75300;-66
2021/04/18 08:47:07;;;;;;;;;;;12.20;40.00;;;;;;5012480;28;78098;-65
2021/04/18 08:49:37;;;;;;;;;;;12.30;39.70;;;;;;5031008;28;78106;-66
2021/04/18 08:52:05;;;;;;;;;;;12.30;39.90;;;;;;5014296;28;78347;-67
2021/04/18 08:54:35;;;;;;;;;;;12.40;39.70;;;;;;5015933;28;75527;-67
2021/04/18 08:57:04;;;;;;;;;;;12.50;39.80;;;;;;5016109;28;74495;-67
2021/04/18 08:59:30;;;;;;;;;;;12.50;39.50;;;;;;5013803;28;76514;-67
2021/04/18 09:02:00;;;;;;;;;;;12.70;39.70;;;;;;5013997;28;75334;-65
2021/04/18 09:04:30;;;;;;;;;;;12.80;39.40;;;;;;5013998;28;78310;-66
2021/04/18 09:06:55;;;;;;;;;;;12.90;39.50;;;;;;5014239;28;77909;-66
2021/04/18 09:09:21;;;;;;;;;;;13.00;38.90;;;;;;5030656;28;75736;-65
2021/04/18 09:11:47;;;;;;;;;;;13.10;39.20;;;;;;5015531;28;75051;-67
2021/04/18 09:14:18;;;;;;;;;;;13.20;38.90;;;;;;5030500;28;77776;-66
2021/04/18 09:16:44;;;;;;;;;;;13.20;38.40;;;;;;5014028;28;77302;-65
2021/04/18 09:19:19;;;;;;;;;;;13.20;38.20;;;;;;5013605;28;78723;-66
2021/04/18 09:21:52;;;;;;;;;;;13.20;38.90;;;;;;5015290;28;75127;-65
2021/04/18 09:24:17;;;;;;;;;;;13.30;39.00;;;;;;5013963;28;78611;-65
2021/04/18 09:26:56;;;;;;;;;;;13.50;38.90;;;;;;5013687;28;76121;-66
2021/04/18 09:29:23;;;;;;;;;;;13.60;38.50;;;;;;5013349;28;76623;-65
2021/04/18 09:31:55;;;;;;;;;;;13.80;38.50;;;;;;5015506;28;74437;-65
2021/04/18 09:34:20;;;;;;;;;;;14.00;38.20;;;;;;5015144;28;75239;-66
2021/04/18 09:36:47;;;;;;;;;;;14.20;37.90;;;;;;5015675;28;74479;-66
2021/04/18 09:39:13;;;;;;;;;;;14.40;37.10;;;;;;5030226;28;76088;-67
2021/04/18 09:41:38;;;;;;;;;;;14.60;36.80;;;;;;5013512;28;74629;-66
2021/04/18 09:44:05;;;;;;;;;;;14.70;36.20;;;;;;5014587;28;75163;-66
2021/04/18 09:46:41;;;;;;;;;;;14.90;36.50;;;;;;5013766;28;77028;-66
2021/04/18 09:49:07;;;;;;;;;;;15.00;36.00;;;;;;5013253;28;77450;-67
2021/04/18 09:52:11;;;;;;;;;;;15.10;35.40;;;;;;5014987;28;75073;-67
2021/04/18 09:54:37;;;;;;;;;;;15.20;35.40;;;;;;4993272;28;74837;-67
2021/04/18 09:57:15;;;;;;;;;;;15.30;35.70;;;;;;4975785;28;75790;-66
2021/04/18 09:59:41;;;;;;;;;;;15.50;35.50;;;;;;5003082;28;74587;-67
2021/04/18 10:02:11;;;;;;;;;;;15.80;35.00;;;;;;5014765;28;75560;-67
2021/04/18 10:04:36;;;;;;;;;;;15.90;34.40;;;;;;5012654;28;77186;-67
2021/04/18 10:07:02;;;;;;;;;;;16.10;34.10;;;;;;5012995;28;76422;-67
2021/04/18 10:09:46;;;;;;;;;;;16.10;33.90;;;;;;5012884;28;77438;-67
2021/04/18 10:12:12;;;;;;;;;;;16.20;34.40;;;;;;5014798;28;74475;-67
2021/04/18 10:14:37;;;;;;;;;;;16.40;33.80;;;;;;5029649;28;77081;-66
2021/04/18 10:17:03;;;;;;;;;;;16.70;33.70;;;;;;5014688;28;74520;-67
2021/04/18 10:19:29;;;;;;;;;;;16.90;32.30;;;;;;5012541;28;76322;-66
2021/04/18 10:22:01;;;;;;;;;;;16.90;32.40;;;;;;5012719;28;75187;-66
2021/04/18 10:24:32;;;;;;;;;;;17.00;32.40;;;;;;5012708;28;78020;-65
2021/04/18 10:26:59;;;;;;;;;;;17.20;32.70;;;;;;5014434;28;74470;-65
2021/04/18 10:29:24;;;;;;;;;;;17.40;32.60;;;;;;5013947;28;75800;-67
2021/04/18 10:31:50;;;;;;;;;;;17.70;32.10;;;;;;5012415;28;77088;-67
2021/04/18 10:34:16;;;;;;;;;;;17.90;32.40;;;;;;5012391;28;75162;-67
2021/04/18 10:36:41;;;;;;;;;;;18.20;31.40;;;;;;5014292;28;74480;-67
2021/04/18 10:39:07;;;;;;;;;;;18.40;31.20;;;;;;5014232;28;75519;-68
2021/04/18 10:41:33;;;;;;;;;;;18.60;30.50;;;;;;5014177;28;74303;-67
2021/04/18 10:43:58;;;;;;;;;;;18.80;30.70;;;;;;5013772;28;74955;-67
2021/04/18 10:46:24;;;;;;;;;;;19.10;30.60;;;;;;5012519;28;78182;-68
2021/04/18 10:48:50;;;;;;;;;;;19.50;29.60;;;;;;5013360;28;74492;-67
2021/04/18 10:51:15;;;;;;;;;;;19.70;29.50;;;;;;5029043;28;77988;-66
2021/04/18 10:53:41;;;;;;;;;;;20.00;28.80;;;;;;5012014;28;74586;-67
2021/04/18 10:56:06;;;;;;;;;;;20.40;28.50;;;;;;5011785;28;74497;-67
2021/04/18 10:58:33;;;;;;;;;;;20.70;27.80;;;;;;5011558;28;74710;-67
2021/04/18 11:00:58;;;;;;;;;;;21.10;27.90;;;;;;5011819;28;77111;-67
2021/04/18 11:03:24;;;;;;;;;;;21.60;27.00;;;;;;5012377;28;77614;-67
2021/04/18 11:05:53;;;;;;;;;;;22.00;26.90;;;;;;5011652;28;75331;-67
2021/04/18 11:08:18;;;;;;;;;;;22.60;26.00;;;;;;5012078;28;76595;-68
2021/04/18 11:10:44;;;;;;;;;;;22.90;23.90;;;;;;5011643;28;74881;-66
2021/04/18 11:13:09;;;;;;;;;;;22.90;24.60;;;;;;5028989;28;78079;-66
2021/04/18 11:15:35;;;;;;;;;;;23.30;23.60;;;;;;5013589;28;75208;-65
2021/04/18 11:18:01;;;;;;;;;;;23.40;23.80;;;;;;5011855;28;77735;-66
2021/04/18 11:20:26;;;;;;;;;;;23.80;24.00;;;;;;5013592;28;75387;-66
2021/04/18 11:22:52;;;;;;;;;;;24.80;23.30;;;;;;5011808;28;75584;-67
2021/04/18 11:25:18;;;;;;;;;;;25.80;22.90;;;;;;5013269;28;75625;-67
2021/04/18 11:27:43;;;;;;;;;;;26.90;22.00;;;;;;5011166;28;77231;-67
2021/04/18 11:30:10;;;;;;;;;;;27.70;20.60;;;;;;5011328;28;77499;-67
2021/04/18 11:32:36;;;;;;;;;;;28.30;20.00;;;;;;5011863;28;78800;-67
2021/04/18 11:35:03;;;;;;;;;;;29.20;19.80;;;;;;5011159;28;77073;-67
2021/04/18 11:37:28;;;;;;;;;;;30.40;18.40;;;;;;5011921;28;75233;-68
2021/04/18 11:39:54;;;;;;;;;;;31.30;18.40;;;;;;5013156;28;75174;-66
2021/04/18 11:42:20;;;;;;;;;;;32.40;16.90;;;;;;5011137;28;77250;-67
2021/04/18 11:44:45;;;;;;;;;;;33.30;17.10;;;;;;5011498;28;75175;-66
2021/04/18 11:47:11;;;;;;;;;;;34.30;16.80;;;;;;5011594;28;76275;-66
2021/04/18 11:49:36;;;;;;;;;;;35.30;16.10;;;;;;5013118;28;74918;-66
2021/04/18 11:52:02;;;;;;;;;;;35.70;15.70;;;;;;5013022;28;75157;-66
2021/04/18 11:54:28;;;;;;;;;;;36.20;15.70;;;;;;5010986;28;76298;-67
2021/04/18 11:56:53;;;;;;;;;;;36.60;15.10;;;;;;5013239;28;74390;-67
2021/04/18 11:59:19;;;;;;;;;;;36.40;14.90;;;;;;5012531;28;75098;-67
2021/04/18 12:01:44;;;;;;;;;;;36.70;14.30;;;;;;5013109;28;74491;-67
2021/04/18 12:04:10;;;;;;;;;;;37.00;14.90;;;;;;5011132;28;77486;-67
2021/04/18 12:06:36;;;;;;;;;;;37.10;15.00;;;;;;5011150;28;76473;-67
2021/04/18 12:09:02;;;;;;;;;;;37.90;14.70;;;;;;5011034;28;75325;-67
2021/04/18 12:11:27;;;;;;;;;;;38.70;14.30;;;;;;5012386;28;75561;-67
2021/04/18 12:13:53;;;;;;;;;;;38.50;13.90;;;;;;5012690;28;75132;-67
2021/04/18 12:16:19;;;;;;;;;;;36.50;14.60;;;;;;5011161;28;77049;-67
2021/04/18 12:18:45;;;;;;;;;;;33.70;16.30;;;;;;5027483;28;76078;-66
2021/04/18 12:21:10;;;;;;;;;;;31.30;17.50;;;;;;5010145;28;76308;-67
2021/04/18 12:23:36;;;;;;;;;;;30.50;19.30;;;;;;5011444;28;77349;-68
2021/04/18 12:26:03;;;;;;;;;;;31.90;18.50;;;;;;5012430;28;74438;-68
2021/04/18 12:28:29;;;;;;;;;;;34.10;17.00;;;;;;5027547;28;74616;-67
2021/04/18 12:30:54;;;;;;;;;;;35.70;15.70;;;;;;5027573;28;75224;-67
2021/04/18 12:33:20;;;;;;;;;;;36.20;15.40;;;;;;5010839;28;75842;-68
2021/04/18 12:35:46;;;;;;;;;;;37.50;15.20;;;;;;5012284;28;75162;-67
2021/04/18 12:38:11;;;;;;;;;;;38.70;14.40;;;;;;5011291;28;74429;-68
2021/04/18 12:40:37;;;;;;;;;;;39.20;13.50;;;;;;5010688;28;75774;-69
2021/04/18 12:43:03;;;;;;;;;;;39.30;12.80;;;;;;5012626;28;75166;-68
2021/04/18 12:45:28;;;;;;;;;;;39.40;13.10;;;;;;5010746;28;75650;-68
2021/04/18 12:47:54;;;;;;;;;;;39.00;13.90;;;;;;5012337;28;75183;-68
2021/04/18 12:50:20;;;;;;;;;;;40.00;13.90;;;;;;5012140;28;74982;-68
2021/04/18 12:52:45;;;;;;;;;;;41.00;12.10;;;;;;5010880;28;77907;-68
2021/04/18 12:55:11;;;;;;;;;;;41.30;13.20;;;;;;5010260;28;74518;-68
2021/04/18 12:57:37;;;;;;;;;;;42.20;12.90;;;;;;5010424;28;76775;-68
2021/04/18 13:00:06;;;;;;;;;;;41.60;13.30;;;;;;5011594;28;75670;-68
2021/04/18 13:02:31;;;;;;;;;;;39.80;14.20;;;;;;5010353;28;76274;-67
2021/04/18 13:04:58;;;;;;;;;;;37.20;15.10;;;;;;5010478;28;77390;-67
2021/04/18 13:07:28;;;;;;;;;;;34.70;15.80;;;;;;5012027;28;75214;-68
2021/04/18 13:09:53;;;;;;;;;;;32.50;17.40;;;;;;5010592;28;75832;-68
2021/04/18 13:12:19;;;;;;;;;;;31.00;19.10;;;;;;5011770;28;75698;-67
2021/04/18 13:14:45;;;;;;;;;;;29.80;19.80;;;;;;5010459;28;75523;-68
2021/04/18 13:17:10;;;;;;;;;;;29.00;21.00;;;;;;5010308;28;76450;-68
2021/04/18 13:19:36;;;;;;;;;;;28.40;21.50;;;;;;5010369;28;77276;-68
2021/04/18 13:22:02;;;;;;;;;;;27.90;20.30;;;;;;5010247;28;76324;-68
2021/04/18 13:24:27;;;;;;;;;;;27.10;20.60;;;;;;5012131;28;75881;-67
2021/04/18 13:26:53;;;;;;;;;;;26.40;21.10;;;;;;5010285;28;75061;-67
2021/04/18 13:29:19;;;;;;;;;;;26.10;21.10;;;;;;5010134;28;76471;-67
2021/04/18 13:31:44;;;;;;;;;;;25.90;21.40;;;;;;5011567;28;75183;-68
2021/04/18 13:34:10;;;;;;;;;;;26.10;21.90;;;;;;5014946;28;75210;-68
2021/04/18 13:36:36;;;;;;;;;;;26.80;21.60;;;;;;5013424;28;77436;-68
2021/04/18 13:39:02;;;;;;;;;;;27.70;20.20;;;;;;5015037;28;75147;-68
2021/04/18 13:41:28;;;;;;;;;;;29.10;19.50;;;;;;5013358;28;77212;-67
2021/04/18 13:43:55;;;;;;;;;;;31.00;17.50;;;;;;5015242;28;75626;-68
2021/04/18 13:46:21;;;;;;;;;;;31.50;17.60;;;;;;5013444;28;76627;-69
2021/04/18 13:48:47;;;;;;;;;;;30.90;18.00;;;;;;5014886;28;75661;-68
2021/04/18 13:51:12;;;;;;;;;;;30.30;18.50;;;;;;5013309;28;76158;-68
2021/04/18 13:53:38;;;;;;;;;;;30.10;18.50;;;;;;5013460;28;76639;-68
2021/04/18 13:56:04;;;;;;;;;;;29.60;19.30;;;;;;5014431;28;75662;-68
2021/04/18 13:58:29;;;;;;;;;;;29.20;19.50;;;;;;4996083;28;77170;-68
2021/04/18 14:00:55;;;;;;;;;;;28.70;19.30;;;;;;5013774;28;76601;-68
2021/04/18 14:03:20;;;;;;;;;;;28.30;19.50;;;;;;5014413;28;75219;-68
2021/04/18 14:05:46;;;;;;;;;;;29.20;19.40;;;;;;5014608;28;75168;-68
2021/04/18 14:08:12;;;;;;;;;;;32.30;18.10;;;;;;5014668;28;74462;-68
2021/04/18 14:10:37;;;;;;;;;;;33.80;16.50;;;;;;5014566;28;75172;-68
2021/04/18 14:13:03;;;;;;;;;;;32.70;16.50;;;;;;5014949;28;74682;-68
2021/04/18 14:15:29;;;;;;;;;;;31.70;17.70;;;;;;5013146;28;77174;-68
2021/04/18 14:17:54;;;;;;;;;;;32.30;17.70;;;;;;5029663;28;75740;-68